createdAt,value
2019-02-10T00:04:52.746Z,3.20
2019-02-10T00:09:54.094Z,3.58
2019-02-10T00:14:56.835Z,5.03
2019-02-10T00:19:58.267Z,4.40
2019-02-10T00:24:59.991Z,4.03
2019-02-10T00:30:04.436Z,4.53
2019-02-10T00:35:05.950Z,4.28
2019-02-10T00:40:07.620Z,4.03
2019-02-10T00:45:09.024Z,3.83
2019-02-10T00:50:10.512Z,3.90
2019-02-10T00:55:12.147Z,4.50
2019-02-10T01:00:13.906Z,4.65
2019-02-10T01:05:15.476Z,4.20
2019-02-10T01:10:18.952Z,4.65
2019-02-10T01:15:20.589Z,5.75
2019-02-10T01:20:22.141Z,4.50
2019-02-10T01:25:23.821Z,4.83
2019-02-10T01:30:25.331Z,3.30
2019-02-10T01:35:26.846Z,3.60
2019-02-10T01:40:28.333Z,3.30
2019-02-10T01:45:29.867Z,3.35
2019-02-10T01:50:31.520Z,3.22
2019-02-10T01:55:34.922Z,2.52
2019-02-10T02:00:36.749Z,2.98
2019-02-10T02:05:38.281Z,3.83
2019-02-10T02:10:42.981Z,4.20
2019-02-10T02:15:44.716Z,3.30
2019-02-10T02:20:46.410Z,3.00
2019-02-10T02:25:48.556Z,2.40
2019-02-10T02:30:50.547Z,3.50
2019-02-10T02:35:52.002Z,3.45
2019-02-10T02:40:53.588Z,2.67
2019-02-10T02:45:56.993Z,4.00
2019-02-10T02:50:58.436Z,3.87
2019-02-10T02:56:00.002Z,3.62
2019-02-10T03:01:01.533Z,2.75
2019-02-10T03:06:02.984Z,4.12
2019-02-10T03:11:04.510Z,3.67
2019-02-10T03:16:05.838Z,4.03
2019-02-10T03:21:07.433Z,3.20
2019-02-10T03:26:09.013Z,3.65
2019-02-10T03:31:10.439Z,3.10
2019-02-10T03:36:11.914Z,3.17
2019-02-10T03:41:13.380Z,4.28
2019-02-10T03:46:14.805Z,4.20
2019-02-10T03:51:16.420Z,5.08
2019-02-10T03:56:18.334Z,4.50
2019-02-10T04:01:19.652Z,4.97
2019-02-10T04:06:20.977Z,5.10
2019-02-10T04:11:24.292Z,5.65
2019-02-10T04:16:25.704Z,6.03
2019-02-10T04:21:27.080Z,4.47
2019-02-10T04:26:28.763Z,3.95
2019-02-10T04:31:32.130Z,4.20
2019-02-10T04:36:33.539Z,3.67
2019-02-10T04:41:35.005Z,4.15
2019-02-10T04:46:36.628Z,3.42
2019-02-10T04:51:38.153Z,3.90
2019-02-10T04:56:39.503Z,3.90
2019-02-10T05:01:41.035Z,3.40
2019-02-10T05:06:42.575Z,3.62
2019-02-10T05:11:44.093Z,3.92
2019-02-10T05:16:45.582Z,3.72
2019-02-10T05:21:46.982Z,3.30
2019-02-10T05:26:48.616Z,3.12
2019-02-10T05:31:50.408Z,3.35
2019-02-10T05:36:51.898Z,3.50
2019-02-10T05:41:53.547Z,3.00
2019-02-10T05:46:55.587Z,2.90
2019-02-10T05:51:57.091Z,3.20
2019-02-10T05:57:00.103Z,3.00
2019-02-10T06:02:06.224Z,3.22
2019-02-10T06:07:16.847Z,3.87
2019-02-10T06:12:20.227Z,3.20
2019-02-10T06:17:21.586Z,3.12
2019-02-10T06:22:23.156Z,3.67
2019-02-10T06:27:24.493Z,3.55
2019-02-10T06:32:25.896Z,3.77
2019-02-10T06:37:28.950Z,4.10
2019-02-10T06:42:30.439Z,3.95
2019-02-10T06:47:31.892Z,3.80
2019-02-10T06:52:33.320Z,5.12
2019-02-10T06:57:36.514Z,4.95
2019-02-10T07:03:28.029Z,5.65
2019-02-10T07:08:30.863Z,5.95
2019-02-10T07:13:36.902Z,7.35
2019-02-10T07:19:37.083Z,6.78
2019-02-10T07:24:59.532Z,6.80
2019-02-10T07:30:09.392Z,5.72
2019-02-10T07:35:42.502Z,5.62
2019-02-10T07:41:17.546Z,5.60
2019-02-10T07:46:33.641Z,5.55
2019-02-10T07:52:23.420Z,5.70
2019-02-10T07:58:00.306Z,4.85
2019-02-10T08:03:10.445Z,4.10
2019-02-10T08:08:46.477Z,4.50
2019-02-10T08:14:16.861Z,4.55
2019-02-10T08:19:43.164Z,4.55
2019-02-10T08:25:17.438Z,4.37
2019-02-10T08:30:42.845Z,4.35
2019-02-10T08:36:21.340Z,3.42
2019-02-10T08:41:34.675Z,3.58
2019-02-10T08:46:53.786Z,3.12
2019-02-10T08:52:16.173Z,2.92
2019-02-10T08:57:17.509Z,2.90
2019-02-10T09:02:37.439Z,2.92
2019-02-10T09:07:38.730Z,3.20
2019-02-10T09:12:42.449Z,4.00
2019-02-10T09:17:45.211Z,4.75
2019-02-10T09:22:53.501Z,4.78
2019-02-10T09:27:55.639Z,6.58
2019-02-10T09:32:59.078Z,5.22
2019-02-10T09:38:00.659Z,6.08
2019-02-10T09:43:02.186Z,4.10
2019-02-10T09:48:03.918Z,3.98
2019-02-10T09:53:05.753Z,3.22
2019-02-10T09:58:07.471Z,3.55
2019-02-10T10:03:09.849Z,2.47
2019-02-10T10:08:11.974Z,2.12
2019-02-10T10:13:15.237Z,1.45
2019-02-10T10:18:17.069Z,2.05
2019-02-10T10:23:18.789Z,2.17
2019-02-10T10:28:20.449Z,1.75
2019-02-10T10:33:22.426Z,2.30
2019-02-10T10:38:24.137Z,2.05
2019-02-10T10:43:25.780Z,2.30
2019-02-10T10:48:30.474Z,2.15
2019-02-10T10:53:32.305Z,2.90
2019-02-10T10:58:34.538Z,2.42
2019-02-10T11:03:36.395Z,2.70
2019-02-10T11:08:37.743Z,2.27
2019-02-10T11:13:39.180Z,2.00
2019-02-10T11:18:41.889Z,1.92
2019-02-10T11:23:43.364Z,1.40
2019-02-10T11:28:45.018Z,1.50
2019-02-10T11:33:47.868Z,1.52
2019-02-10T11:38:49.567Z,1.70
2019-02-10T11:43:51.162Z,1.75
2019-02-10T11:48:53.859Z,2.10
2019-02-10T11:54:01.392Z,1.50
2019-02-10T11:59:03.271Z,1.87
2019-02-10T12:04:04.717Z,4.75
2019-02-10T12:09:08.321Z,6.35
2019-02-10T12:14:11.832Z,2.22
2019-02-10T12:19:13.313Z,3.47
2019-02-10T12:24:14.718Z,2.00
2019-02-10T12:29:16.861Z,1.47
2019-02-10T12:34:20.187Z,2.80
2019-02-10T12:39:21.633Z,4.50
2019-02-10T12:44:22.933Z,1.45
2019-02-10T12:49:24.515Z,1.70
2019-02-10T12:54:31.676Z,2.10
2019-02-10T12:59:33.107Z,1.67
2019-02-10T13:04:34.881Z,1.72
2019-02-10T13:09:36.422Z,2.98
2019-02-10T13:14:39.648Z,2.62
2019-02-10T13:19:42.622Z,1.80
2019-02-10T13:24:44.173Z,1.77
2019-02-10T13:29:45.700Z,2.60
2019-02-10T13:34:47.140Z,3.15
2019-02-10T13:39:51.127Z,3.25
2019-02-10T13:44:52.953Z,4.62
2019-02-10T13:49:54.246Z,1.52
2019-02-10T13:54:55.613Z,3.87
2019-02-10T14:00:04.306Z,3.30
2019-02-10T14:05:06.832Z,2.70
2019-02-10T14:10:14.480Z,5.10
2019-02-10T14:15:18.695Z,1.60
2019-02-10T14:20:20.211Z,0.80
2019-02-10T14:25:25.589Z,1.20
2019-02-10T14:30:26.897Z,1.82
2019-02-10T14:35:28.690Z,2.00
2019-02-10T14:40:33.619Z,1.10
2019-02-10T14:45:44.353Z,0.37
2019-02-10T14:50:46.113Z,0.55
2019-02-10T14:55:47.704Z,0.80
2019-02-10T15:00:50.818Z,0.70
2019-02-10T15:05:52.994Z,1.50
2019-02-10T15:10:54.953Z,2.22
2019-02-10T15:15:57.045Z,1.27
2019-02-10T15:21:00.849Z,1.50
2019-02-10T15:26:04.080Z,8.88
2019-02-10T15:31:05.695Z,7.15
2019-02-10T15:36:07.191Z,5.17
2019-02-10T15:41:08.971Z,4.60
2019-02-10T15:46:10.704Z,6.00
2019-02-10T15:51:12.042Z,4.10
2019-02-10T15:56:13.620Z,3.58
2019-02-10T16:01:15.491Z,2.77
2019-02-10T16:06:16.966Z,3.22
2019-02-10T16:11:20.229Z,3.67
2019-02-10T16:16:21.557Z,4.85
2019-02-10T16:21:23.105Z,1.80
2019-02-10T16:26:24.694Z,0.57
2019-02-10T16:31:26.246Z,0.60
2019-02-10T16:36:28.065Z,0.50
2019-02-10T16:41:29.805Z,0.65
2019-02-10T16:46:31.298Z,0.70
2019-02-10T16:51:32.831Z,1.20
2019-02-10T16:56:34.467Z,1.25
2019-02-10T17:01:36.035Z,0.88
2019-02-10T17:06:39.895Z,1.20
2019-02-10T17:11:43.433Z,1.32
2019-02-10T17:16:46.323Z,1.05
2019-02-10T17:21:47.746Z,1.40
2019-02-10T17:26:51.036Z,1.15
2019-02-10T17:31:52.647Z,0.90
2019-02-10T17:36:54.093Z,1.70
2019-02-10T17:41:55.932Z,2.40
2019-02-10T17:46:57.302Z,1.95
2019-02-10T17:51:58.569Z,2.10
2019-02-10T17:57:00.033Z,1.92
2019-02-10T18:02:01.396Z,2.60
2019-02-10T18:07:02.876Z,2.80
2019-02-10T18:12:04.376Z,3.47
2019-02-10T18:17:10.348Z,1.42
2019-02-10T18:22:31.634Z,1.37
2019-02-10T18:27:39.313Z,1.50
2019-02-10T18:32:45.867Z,0.85
2019-02-10T18:37:49.147Z,1.45
2019-02-10T18:43:04.996Z,0.80
2019-02-10T18:48:11.396Z,1.10
2019-02-10T18:53:17.459Z,1.50
2019-02-10T18:58:24.642Z,1.72
2019-02-10T19:03:31.044Z,1.30
2019-02-10T19:08:37.428Z,1.70
2019-02-10T19:13:46.373Z,0.95
2019-02-10T19:18:58.762Z,0.90
2019-02-10T19:24:07.954Z,1.22
2019-02-10T19:29:15.076Z,2.02
2019-02-10T19:34:18.573Z,1.40
2019-02-10T19:39:21.998Z,2.30
2019-02-10T19:44:25.551Z,2.27
2019-02-10T19:49:45.776Z,2.72
2019-02-10T19:54:56.402Z,2.70
2019-02-10T20:00:18.266Z,1.60
2019-02-10T20:05:24.671Z,1.30
2019-02-10T20:10:34.669Z,2.40
2019-02-10T20:15:43.551Z,2.45
2019-02-10T20:20:53.789Z,2.55
2019-02-10T20:26:06.007Z,2.02
2019-02-10T20:31:25.991Z,2.40
2019-02-10T20:36:38.103Z,2.67
2019-02-10T20:41:45.286Z,2.27
2019-02-10T20:46:58.460Z,2.20
2019-02-10T20:52:02.022Z,3.12
2019-02-10T20:57:11.575Z,4.00
2019-02-10T21:02:18.009Z,2.45
2019-02-10T21:07:21.342Z,2.58
2019-02-10T21:12:33.689Z,3.70
2019-02-10T21:17:42.921Z,3.92
2019-02-10T21:22:46.211Z,4.53
2019-02-10T21:28:04.545Z,2.45
2019-02-10T21:33:08.004Z,3.47
2019-02-10T21:38:28.062Z,2.58
2019-02-10T21:43:34.713Z,3.27
2019-02-10T21:48:36.259Z,4.03
2019-02-10T21:53:39.539Z,4.22
2019-02-10T21:58:40.884Z,2.87
2019-02-10T22:03:42.243Z,4.90
2019-02-10T22:08:43.865Z,4.00
2019-02-10T22:13:48.483Z,4.53
2019-02-10T22:19:02.571Z,5.12
2019-02-10T22:24:05.457Z,2.15
2019-02-10T22:29:10.516Z,1.10
2019-02-10T22:34:12.729Z,1.47
2019-02-10T22:39:14.133Z,2.33
2019-02-10T22:44:19.916Z,3.72
2019-02-10T22:49:21.510Z,11.68
2019-02-10T22:54:24.507Z,13.98
2019-02-10T22:59:26.088Z,12.70
2019-02-10T23:04:27.417Z,11.68
2019-02-10T23:09:30.058Z,10.25
2019-02-10T23:14:32.680Z,6.62
2019-02-10T23:19:34.190Z,3.42
2019-02-10T23:24:39.690Z,3.20
2019-02-10T23:29:41.058Z,2.15
2019-02-10T23:34:45.279Z,1.80
2019-02-10T23:39:46.661Z,2.35
2019-02-10T23:44:48.595Z,3.15
2019-02-10T23:49:50.266Z,1.95
2019-02-10T23:54:51.674Z,1.32
2019-02-10T23:59:53.270Z,1.10
